createdAt,value
2022-08-31T00:01:29.546Z,18.79
2022-08-31T00:06:35.037Z,18.77
2022-08-31T00:11:38.789Z,18.75
2022-08-31T00:16:46.338Z,18.64
2022-08-31T00:21:50.279Z,18.61
2022-08-31T00:26:54.150Z,18.48
2022-08-31T00:31:59.298Z,18.45
2022-08-31T00:37:04.383Z,18.33
2022-08-31T00:42:09.853Z,18.37
2022-08-31T00:47:15.630Z,18.35
2022-08-31T00:52:22.719Z,18.29
2022-08-31T00:57:34.463Z,18.26
2022-08-31T01:02:40.241Z,18.24
2022-08-31T01:07:47.676Z,18.17
2022-08-31T01:12:55.112Z,18.12
2022-08-31T01:18:03.424Z,18.10
2022-08-31T01:23:12.145Z,18.03
2022-08-31T01:28:17.064Z,17.98
2022-08-31T01:33:20.800Z,17.88
2022-08-31T01:38:26.145Z,17.82
2022-08-31T01:43:33.860Z,17.74
2022-08-31T01:48:41.568Z,17.71
2022-08-31T01:53:49.179Z,17.66
2022-08-31T01:58:53.303Z,17.58
2022-08-31T02:03:59.415Z,17.55
2022-08-31T02:09:07.105Z,17.49
2022-08-31T02:14:12.878Z,17.46
2022-08-31T02:19:16.775Z,17.43
2022-08-31T02:24:21.878Z,17.40
2022-08-31T02:29:25.641Z,17.35
2022-08-31T02:34:29.564Z,17.31
2022-08-31T02:39:35.033Z,17.32
2022-08-31T02:44:38.917Z,17.23
2022-08-31T02:49:42.766Z,17.17
2022-08-31T02:54:48.524Z,17.13
2022-08-31T02:59:52.321Z,17.09
2022-08-31T03:04:56.131Z,17.08
2022-08-31T03:10:02.955Z,17.02
2022-08-31T03:15:08.868Z,16.96
2022-08-31T03:20:13.659Z,16.92
2022-08-31T03:25:18.910Z,16.87
2022-08-31T03:30:23.804Z,16.87
2022-08-31T03:35:31.004Z,16.84
2022-08-31T03:40:36.288Z,16.72
2022-08-31T03:45:41.156Z,16.66
2022-08-31T03:50:45.277Z,16.68
2022-08-31T03:55:51.055Z,16.66
2022-08-31T04:00:55.254Z,16.57
2022-08-31T04:05:59.523Z,16.53
2022-08-31T04:11:16.057Z,16.49
2022-08-31T04:16:24.528Z,16.44
2022-08-31T04:21:33.167Z,16.40
2022-08-31T04:26:40.482Z,16.36
2022-08-31T04:31:44.885Z,16.28
2022-08-31T04:36:48.994Z,16.20
2022-08-31T04:41:55.483Z,16.16
2022-08-31T04:47:00.327Z,16.15
2022-08-31T04:52:04.774Z,16.07
2022-08-31T04:57:10.724Z,16.09
2022-08-31T05:02:14.618Z,16.03
2022-08-31T05:07:18.835Z,16.02
2022-08-31T05:12:24.169Z,16.02
2022-08-31T05:17:29.161Z,15.98
2022-08-31T05:22:33.649Z,15.96
2022-08-31T05:27:39.802Z,15.92
2022-08-31T05:32:44.240Z,15.86
2022-08-31T05:37:51.508Z,15.91
2022-08-31T05:42:59.478Z,15.93
2022-08-31T05:48:03.651Z,15.89
2022-08-31T05:53:08.322Z,15.84
2022-08-31T05:58:13.460Z,15.86
2022-08-31T06:03:17.737Z,15.91
2022-08-31T06:08:27.063Z,15.94
2022-08-31T06:13:33.902Z,15.98
2022-08-31T06:18:41.110Z,16.01
2022-08-31T06:23:45.473Z,16.04
2022-08-31T06:28:53.971Z,16.05
2022-08-31T06:33:59.297Z,16.13
2022-08-31T06:39:05.911Z,16.24
2022-08-31T06:44:13.818Z,16.35
2022-08-31T06:49:27.126Z,16.46
2022-08-31T06:54:31.067Z,16.53
2022-08-31T06:59:43.306Z,16.60
2022-08-31T07:04:48.647Z,16.54
2022-08-31T07:09:52.690Z,16.61
2022-08-31T07:14:58.044Z,16.67
2022-08-31T07:20:01.888Z,16.84
2022-08-31T07:25:07.971Z,16.91
2022-08-31T07:30:14.658Z,17.02
2022-08-31T07:35:19.263Z,17.20
2022-08-31T07:40:41.735Z,17.31
2022-08-31T07:45:47.494Z,17.48
2022-08-31T07:50:54.272Z,17.56
2022-08-31T07:56:01.646Z,17.64
2022-08-31T08:01:07.977Z,17.77
2022-08-31T08:06:15.421Z,17.86
2022-08-31T08:11:22.906Z,18.03
2022-08-31T08:16:29.918Z,18.20
2022-08-31T08:21:34.043Z,18.39
2022-08-31T08:26:38.617Z,18.46
2022-08-31T08:31:53.094Z,18.61
2022-08-31T08:36:57.444Z,18.74
2022-08-31T08:42:01.370Z,18.96
2022-08-31T08:47:08.847Z,19.17
2022-08-31T08:52:27.085Z,19.47
2022-08-31T08:57:33.142Z,19.63
2022-08-31T09:02:43.774Z,19.90
2022-08-31T09:08:10.368Z,20.18
2022-08-31T09:13:23.317Z,20.36
2022-08-31T09:18:44.827Z,20.66
2022-08-31T09:23:55.145Z,21.01
2022-08-31T09:28:58.915Z,21.20
2022-08-31T09:34:05.380Z,21.55
2022-08-31T09:39:17.191Z,22.02
2022-08-31T09:44:31.494Z,22.24
2022-08-31T09:49:39.693Z,22.39
2022-08-31T09:55:13.191Z,22.63
2022-08-31T10:00:26.028Z,22.44
2022-08-31T10:05:40.437Z,22.69
2022-08-31T10:10:47.117Z,22.62
2022-08-31T10:15:54.545Z,23.10
2022-08-31T10:21:07.773Z,23.49
2022-08-31T10:26:19.022Z,24.06
2022-08-31T10:31:30.062Z,24.64
2022-08-31T10:36:40.959Z,25.10
2022-08-31T10:41:49.443Z,25.79
2022-08-31T10:46:58.956Z,26.62
2022-08-31T10:52:12.679Z,27.37
2022-08-31T10:57:31.423Z,28.21
2022-08-31T11:02:53.108Z,28.69
2022-08-31T11:08:06.612Z,29.36
2022-08-31T11:13:27.827Z,29.86
2022-08-31T11:19:09.245Z,30.59
2022-08-31T11:24:30.088Z,29.78
2022-08-31T11:29:43.288Z,30.21
2022-08-31T11:34:51.506Z,30.99
2022-08-31T11:39:56.716Z,30.90
2022-08-31T11:45:03.251Z,29.99
2022-08-31T11:50:56.058Z,30.48
2022-08-31T11:56:05.136Z,30.81
2022-08-31T12:01:35.891Z,30.53
2022-08-31T12:07:11.099Z,30.97
2022-08-31T12:12:33.529Z,30.63
2022-08-31T12:17:51.871Z,31.73
2022-08-31T12:23:38.817Z,31.95
2022-08-31T12:29:02.546Z,32.11
2022-08-31T12:34:08.985Z,31.55
2022-08-31T12:39:20.386Z,31.59
2022-08-31T12:44:28.938Z,32.21
2022-08-31T12:50:07.825Z,32.30
2022-08-31T12:55:28.197Z,32.89
2022-08-31T13:00:35.670Z,33.59
2022-08-31T13:05:39.890Z,33.70
2022-08-31T13:10:43.622Z,34.52
2022-08-31T13:15:49.546Z,34.51
2022-08-31T13:20:56.593Z,34.73
2022-08-31T13:26:01.479Z,35.04
2022-08-31T13:31:10.200Z,34.26
2022-08-31T13:36:30.336Z,33.00
2022-08-31T13:41:38.447Z,32.63
2022-08-31T13:46:59.392Z,31.66
2022-08-31T13:52:05.283Z,31.72
2022-08-31T13:57:28.327Z,31.08
2022-08-31T14:02:40.349Z,30.83
2022-08-31T14:07:58.356Z,30.81
2022-08-31T14:13:04.650Z,30.12
2022-08-31T14:18:24.310Z,30.13
2022-08-31T14:23:34.808Z,29.81
2022-08-31T14:28:41.951Z,29.55
2022-08-31T14:33:48.166Z,29.40
2022-08-31T14:38:54.331Z,28.79
2022-08-31T14:44:09.397Z,29.24
2022-08-31T14:49:14.660Z,29.45
2022-08-31T14:54:18.409Z,29.36
2022-08-31T14:59:22.224Z,28.98
2022-08-31T15:04:28.904Z,28.91
2022-08-31T15:09:32.852Z,28.49
2022-08-31T15:14:37.085Z,28.52
2022-08-31T15:19:44.801Z,28.63
2022-08-31T15:24:49.620Z,28.68
2022-08-31T15:29:59.109Z,29.18
2022-08-31T15:35:04.656Z,29.20
2022-08-31T15:40:11.135Z,29.48
2022-08-31T15:45:15.024Z,29.46
2022-08-31T15:50:25.024Z,29.55
2022-08-31T15:55:29.031Z,29.86
2022-08-31T16:00:33.947Z,29.65
2022-08-31T16:05:39.865Z,29.79
2022-08-31T16:10:45.235Z,30.04
2022-08-31T16:15:52.012Z,29.88
2022-08-31T16:20:57.197Z,29.62
2022-08-31T16:26:00.976Z,29.15
2022-08-31T16:31:06.440Z,29.42
2022-08-31T16:36:17.786Z,29.31
2022-08-31T16:41:23.932Z,29.05
2022-08-31T16:46:40.611Z,28.77
2022-08-31T16:51:48.635Z,28.48
2022-08-31T16:56:52.532Z,28.21
2022-08-31T17:01:56.694Z,27.94
2022-08-31T17:07:01.826Z,27.58
2022-08-31T17:12:11.753Z,27.47
2022-08-31T17:17:17.133Z,27.18
2022-08-31T17:22:31.852Z,26.89
2022-08-31T17:27:36.880Z,26.74
2022-08-31T17:32:44.727Z,26.58
2022-08-31T17:37:50.877Z,26.36
2022-08-31T17:42:59.632Z,26.32
2022-08-31T17:48:04.057Z,26.08
2022-08-31T17:53:09.161Z,25.79
2022-08-31T17:58:13.395Z,25.76
2022-08-31T18:03:17.270Z,25.66
2022-08-31T18:08:26.374Z,25.46
2022-08-31T18:13:30.159Z,25.12
2022-08-31T18:18:34.079Z,24.90
2022-08-31T18:23:39.882Z,24.82
2022-08-31T18:28:43.993Z,24.76
2022-08-31T18:33:51.538Z,24.58
2022-08-31T18:38:59.471Z,24.48
2022-08-31T18:44:21.062Z,24.28
2022-08-31T18:49:25.276Z,24.15
2022-08-31T18:54:31.888Z,24.06
2022-08-31T18:59:35.767Z,23.89
2022-08-31T19:04:40.437Z,23.86
2022-08-31T19:09:45.919Z,23.73
2022-08-31T19:14:51.177Z,23.60
2022-08-31T19:19:55.220Z,23.36
2022-08-31T19:25:00.325Z,23.34
2022-08-31T19:30:06.019Z,23.24
2022-08-31T19:35:10.315Z,23.19
2022-08-31T19:40:17.892Z,23.11
2022-08-31T19:45:23.305Z,23.01
2022-08-31T19:50:27.802Z,22.84
2022-08-31T19:55:33.028Z,22.87
2022-08-31T20:00:38.796Z,22.86
2022-08-31T20:05:43.379Z,22.89
2022-08-31T20:10:48.802Z,22.77
2022-08-31T20:15:52.798Z,22.72
2022-08-31T20:20:59.226Z,22.70
2022-08-31T20:26:05.242Z,22.66
2022-08-31T20:31:11.222Z,22.61
2022-08-31T20:36:18.985Z,22.52
2022-08-31T20:41:24.798Z,22.41
2022-08-31T20:46:46.370Z,22.30
2022-08-31T20:51:50.575Z,22.11
2022-08-31T20:56:55.871Z,22.15
2022-08-31T21:02:05.616Z,22.04
2022-08-31T21:07:13.158Z,22.00
2022-08-31T21:12:21.062Z,21.85
2022-08-31T21:17:25.375Z,21.78
2022-08-31T21:22:29.086Z,21.63
2022-08-31T21:27:34.555Z,21.63
2022-08-31T21:32:40.628Z,21.55
2022-08-31T21:37:44.306Z,21.48
2022-08-31T21:42:49.659Z,21.37
2022-08-31T21:47:53.356Z,21.27
2022-08-31T21:53:00.305Z,21.15
2022-08-31T21:58:05.656Z,21.05
2022-08-31T22:03:09.809Z,20.86
2022-08-31T22:08:13.639Z,20.79
2022-08-31T22:13:19.876Z,20.62
2022-08-31T22:18:59.742Z,20.50
2022-08-31T22:23:47.931Z,20.41
2022-08-31T22:28:53.384Z,20.28
2022-08-31T22:33:57.248Z,20.12
2022-08-31T22:39:03.243Z,19.96
2022-08-31T22:44:09.987Z,19.84
2022-08-31T22:49:15.023Z,19.73
2022-08-31T22:54:21.032Z,19.62
2022-08-31T22:59:27.686Z,19.49
2022-08-31T23:04:34.228Z,19.41
2022-08-31T23:09:38.179Z,19.29
2022-08-31T23:14:43.219Z,19.16
2022-08-31T23:19:47.034Z,19.09
2022-08-31T23:24:51.731Z,19.00
2022-08-31T23:29:58.197Z,18.91
2022-08-31T23:35:03.020Z,18.77
2022-08-31T23:40:08.579Z,18.70
2022-08-31T23:45:13.832Z,18.61
2022-08-31T23:50:17.733Z,18.49
2022-08-31T23:55:28.300Z,18.47
